sensor_id;sensor_type;location;lat;lon;timestamp;P1;durP1;ratioP1;P2;durP2;ratioP2
37559;SDS011;23398;50.928;7.084;2023-01-09T00:00:38;0.93;;;0.73;;
37559;SDS011;23398;50.928;7.084;2023-01-09T00:03:04;0.93;;;0.80;;
37559;SDS011;23398;50.928;7.084;2023-01-09T00:05:29;1.05;;;0.77;;
37559;SDS011;23398;50.928;7.084;2023-01-09T00:07:55;0.70;;;0.70;;
37559;SDS011;23398;50.928;7.084;2023-01-09T00:10:20;0.60;;;0.60;;
37559;SDS011;23398;50.928;7.084;2023-01-09T00:12:46;0.98;;;0.55;;
37559;SDS011;23398;50.928;7.084;2023-01-09T00:15:11;0.65;;;0.60;;
37559;SDS011;23398;50.928;7.084;2023-01-09T00:17:37;0.70;;;0.40;;
37559;SDS011;23398;50.928;7.084;2023-01-09T00:20:04;1.00;;;0.50;;
37559;SDS011;23398;50.928;7.084;2023-01-09T00:22:30;0.50;;;0.50;;
37559;SDS011;23398;50.928;7.084;2023-01-09T00:24:56;0.50;;;0.50;;
37559;SDS011;23398;50.928;7.084;2023-01-09T00:27:21;0.47;;;0.47;;
37559;SDS011;23398;50.928;7.084;2023-01-09T00:29:47;0.57;;;0.50;;
37559;SDS011;23398;50.928;7.084;2023-01-09T00:32:13;0.75;;;0.50;;
37559;SDS011;23398;50.928;7.084;2023-01-09T00:34:39;0.63;;;0.50;;
37559;SDS011;23398;50.928;7.084;2023-01-09T00:37:07;0.75;;;0.50;;
37559;SDS011;23398;50.928;7.084;2023-01-09T00:39:39;0.43;;;0.40;;
37559;SDS011;23398;50.928;7.084;2023-01-09T00:42:06;1.48;;;0.40;;
37559;SDS011;23398;50.928;7.084;2023-01-09T00:44:36;0.43;;;0.43;;
37559;SDS011;23398;50.928;7.084;2023-01-09T00:47:10;0.52;;;0.40;;
37559;SDS011;23398;50.928;7.084;2023-01-09T00:49:40;0.50;;;0.40;;
37559;SDS011;23398;50.928;7.084;2023-01-09T00:52:08;0.43;;;0.43;;
37559;SDS011;23398;50.928;7.084;2023-01-09T00:54:34;0.30;;;0.30;;
37559;SDS011;23398;50.928;7.084;2023-01-09T00:57:01;0.52;;;0.40;;
37559;SDS011;23398;50.928;7.084;2023-01-09T00:59:26;0.43;;;0.43;;
37559;SDS011;23398;50.928;7.084;2023-01-09T01:01:52;0.30;;;0.30;;
37559;SDS011;23398;50.928;7.084;2023-01-09T01:04:17;0.40;;;0.40;;
37559;SDS011;23398;50.928;7.084;2023-01-09T01:07:02;0.20;;;0.20;;
37559;SDS011;23398;50.928;7.084;2023-01-09T01:09:46;0.30;;;0.30;;
37559;SDS011;23398;50.928;7.084;2023-01-09T01:12:12;0.25;;;0.25;;
37559;SDS011;23398;50.928;7.084;2023-01-09T01:14:38;0.50;;;0.30;;
37559;SDS011;23398;50.928;7.084;2023-01-09T01:17:04;0.60;;;0.30;;
37559;SDS011;23398;50.928;7.084;2023-01-09T01:19:30;0.20;;;0.20;;
37559;SDS011;23398;50.928;7.084;2023-01-09T01:21:56;0.30;;;0.30;;
37559;SDS011;23398;50.928;7.084;2023-01-09T01:24:22;0.32;;;0.30;;
37559;SDS011;23398;50.928;7.084;2023-01-09T01:26:48;0.20;;;0.20;;
37559;SDS011;23398;50.928;7.084;2023-01-09T01:29:13;0.30;;;0.30;;
37559;SDS011;23398;50.928;7.084;2023-01-09T01:31:39;0.40;;;0.30;;
37559;SDS011;23398;50.928;7.084;2023-01-09T01:34:04;0.30;;;0.30;;
37559;SDS011;23398;50.928;7.084;2023-01-09T01:36:30;0.30;;;0.30;;
37559;SDS011;23398;50.928;7.084;2023-01-09T01:38:56;0.30;;;0.30;;
37559;SDS011;23398;50.928;7.084;2023-01-09T01:41:22;0.20;;;0.20;;
37559;SDS011;23398;50.928;7.084;2023-01-09T01:44:03;0.30;;;0.30;;
37559;SDS011;23398;50.928;7.084;2023-01-09T01:46:31;0.20;;;0.20;;
37559;SDS011;23398;50.928;7.084;2023-01-09T01:49:08;0.30;;;0.30;;
37559;SDS011;23398;50.928;7.084;2023-01-09T01:51:41;0.30;;;0.30;;
37559;SDS011;23398;50.928;7.084;2023-01-09T01:54:15;0.38;;;0.38;;
37559;SDS011;23398;50.928;7.084;2023-01-09T01:56:46;0.30;;;0.30;;
37559;SDS011;23398;50.928;7.084;2023-01-09T01:59:21;0.55;;;0.30;;
37559;SDS011;23398;50.928;7.084;2023-01-09T02:01:53;0.43;;;0.30;;
37559;SDS011;23398;50.928;7.084;2023-01-09T02:04:21;0.40;;;0.40;;
37559;SDS011;23398;50.928;7.084;2023-01-09T02:06:48;0.25;;;0.25;;
37559;SDS011;23398;50.928;7.084;2023-01-09T02:09:16;0.38;;;0.30;;
37559;SDS011;23398;50.928;7.084;2023-01-09T02:11:47;0.30;;;0.30;;
37559;SDS011;23398;50.928;7.084;2023-01-09T02:14:14;0.30;;;0.30;;
37559;SDS011;23398;50.928;7.084;2023-01-09T02:19:55;0.20;;;0.20;;
37559;SDS011;23398;50.928;7.084;2023-01-09T02:31:07;0.73;;;0.30;;
37559;SDS011;23398;50.928;7.084;2023-01-09T02:36:50;0.40;;;0.40;;
37559;SDS011;23398;50.928;7.084;2023-01-09T02:39:22;0.40;;;0.40;;
37559;SDS011;23398;50.928;7.084;2023-01-09T02:41:53;0.65;;;0.40;;
37559;SDS011;23398;50.928;7.084;2023-01-09T02:44:28;0.52;;;0.40;;
37559;SDS011;23398;50.928;7.084;2023-01-09T02:46:58;0.30;;;0.30;;
37559;SDS011;23398;50.928;7.084;2023-01-09T03:00:46;0.75;;;0.50;;
37559;SDS011;23398;50.928;7.084;2023-01-09T03:06:19;0.70;;;0.45;;
37559;SDS011;23398;50.928;7.084;2023-01-09T03:08:56;0.50;;;0.45;;
37559;SDS011;23398;50.928;7.084;2023-01-09T03:11:29;0.40;;;0.40;;
37559;SDS011;23398;50.928;7.084;2023-01-09T03:14:08;0.60;;;0.45;;
37559;SDS011;23398;50.928;7.084;2023-01-09T03:16:38;0.32;;;0.32;;
37559;SDS011;23398;50.928;7.084;2023-01-09T03:19:04;0.80;;;0.50;;
37559;SDS011;23398;50.928;7.084;2023-01-09T03:21:35;0.40;;;0.40;;
37559;SDS011;23398;50.928;7.084;2023-01-09T03:24:01;0.40;;;0.40;;
37559;SDS011;23398;50.928;7.084;2023-01-09T03:26:27;1.08;;;0.47;;
37559;SDS011;23398;50.928;7.084;2023-01-09T03:28:55;0.60;;;0.60;;
37559;SDS011;23398;50.928;7.084;2023-01-09T03:31:21;0.40;;;0.40;;
37559;SDS011;23398;50.928;7.084;2023-01-09T03:33:47;0.57;;;0.47;;
37559;SDS011;23398;50.928;7.084;2023-01-09T03:36:13;0.88;;;0.57;;
37559;SDS011;23398;50.928;7.084;2023-01-09T03:38:40;0.50;;;0.50;;
37559;SDS011;23398;50.928;7.084;2023-01-09T03:41:06;4.18;;;0.50;;
37559;SDS011;23398;50.928;7.084;2023-01-09T03:43:32;1.40;;;0.60;;
37559;SDS011;23398;50.928;7.084;2023-01-09T03:45:57;1.15;;;0.57;;
37559;SDS011;23398;50.928;7.084;2023-01-09T03:48:23;1.15;;;0.63;;
37559;SDS011;23398;50.928;7.084;2023-01-09T03:50:52;0.88;;;0.47;;
37559;SDS011;23398;50.928;7.084;2023-01-09T03:53:19;1.95;;;0.60;;
37559;SDS011;23398;50.928;7.084;2023-01-09T03:55:46;1.55;;;0.70;;
37559;SDS011;23398;50.928;7.084;2023-01-09T03:58:14;1.77;;;0.70;;
37559;SDS011;23398;50.928;7.084;2023-01-09T04:00:41;1.33;;;0.60;;
37559;SDS011;23398;50.928;7.084;2023-01-09T04:03:07;0.55;;;0.55;;
37559;SDS011;23398;50.928;7.084;2023-01-09T04:05:33;0.73;;;0.55;;
37559;SDS011;23398;50.928;7.084;2023-01-09T04:07:59;0.85;;;0.57;;
37559;SDS011;23398;50.928;7.084;2023-01-09T04:10:25;0.50;;;0.50;;
37559;SDS011;23398;50.928;7.084;2023-01-09T04:12:51;0.95;;;0.50;;
37559;SDS011;23398;50.928;7.084;2023-01-09T04:15:16;0.77;;;0.45;;
37559;SDS011;23398;50.928;7.084;2023-01-09T04:17:43;0.90;;;0.70;;
37559;SDS011;23398;50.928;7.084;2023-01-09T04:20:08;2.35;;;0.80;;
37559;SDS011;23398;50.928;7.084;2023-01-09T04:22:34;0.70;;;0.60;;
37559;SDS011;23398;50.928;7.084;2023-01-09T04:25:00;1.42;;;0.55;;
37559;SDS011;23398;50.928;7.084;2023-01-09T04:27:26;1.00;;;0.57;;
37559;SDS011;23398;50.928;7.084;2023-01-09T04:29:51;2.53;;;0.70;;
37559;SDS011;23398;50.928;7.084;2023-01-09T04:32:17;1.58;;;0.73;;
37559;SDS011;23398;50.928;7.084;2023-01-09T04:34:42;1.30;;;0.80;;
37559;SDS011;23398;50.928;7.084;2023-01-09T04:37:08;0.55;;;0.55;;
37559;SDS011;23398;50.928;7.084;2023-01-09T04:39:33;1.60;;;0.60;;
37559;SDS011;23398;50.928;7.084;2023-01-09T04:41:59;2.08;;;0.60;;
37559;SDS011;23398;50.928;7.084;2023-01-09T04:44:25;0.80;;;0.57;;
37559;SDS011;23398;50.928;7.084;2023-01-09T04:46:51;0.63;;;0.60;;
37559;SDS011;23398;50.928;7.084;2023-01-09T04:49:17;0.70;;;0.50;;
37559;SDS011;23398;50.928;7.084;2023-01-09T04:51:42;1.65;;;0.70;;
37559;SDS011;23398;50.928;7.084;2023-01-09T04:54:08;1.40;;;0.50;;
37559;SDS011;23398;50.928;7.084;2023-01-09T04:56:34;0.88;;;0.73;;
37559;SDS011;23398;50.928;7.084;2023-01-09T04:59:00;1.17;;;0.70;;
37559;SDS011;23398;50.928;7.084;2023-01-09T05:01:26;0.60;;;0.52;;
37559;SDS011;23398;50.928;7.084;2023-01-09T05:03:51;0.85;;;0.57;;
37559;SDS011;23398;50.928;7.084;2023-01-09T05:06:17;0.85;;;0.60;;
37559;SDS011;23398;50.928;7.084;2023-01-09T05:08:42;0.85;;;0.70;;
37559;SDS011;23398;50.928;7.084;2023-01-09T05:11:08;1.10;;;0.57;;
37559;SDS011;23398;50.928;7.084;2023-01-09T05:13:33;0.75;;;0.68;;
37559;SDS011;23398;50.928;7.084;2023-01-09T05:15:59;1.02;;;0.60;;
37559;SDS011;23398;50.928;7.084;2023-01-09T05:18:24;1.65;;;0.70;;
37559;SDS011;23398;50.928;7.084;2023-01-09T05:20:50;1.10;;;0.70;;
37559;SDS011;23398;50.928;7.084;2023-01-09T05:23:15;1.17;;;0.80;;
37559;SDS011;23398;50.928;7.084;2023-01-09T05:25:41;0.77;;;0.70;;
37559;SDS011;23398;50.928;7.084;2023-01-09T05:28:06;1.58;;;0.80;;
37559;SDS011;23398;50.928;7.084;2023-01-09T05:30:32;2.10;;;0.90;;
37559;SDS011;23398;50.928;7.084;2023-01-09T05:32:58;1.25;;;0.65;;
37559;SDS011;23398;50.928;7.084;2023-01-09T05:35:23;1.58;;;0.80;;
37559;SDS011;23398;50.928;7.084;2023-01-09T05:37:49;1.38;;;0.80;;
37559;SDS011;23398;50.928;7.084;2023-01-09T05:40:14;1.05;;;0.70;;
37559;SDS011;23398;50.928;7.084;2023-01-09T05:42:41;2.42;;;0.77;;
37559;SDS011;23398;50.928;7.084;2023-01-09T05:45:07;1.70;;;0.80;;
37559;SDS011;23398;50.928;7.084;2023-01-09T05:47:33;0.90;;;0.80;;
37559;SDS011;23398;50.928;7.084;2023-01-09T05:49:59;1.25;;;0.77;;
37559;SDS011;23398;50.928;7.084;2023-01-09T05:52:25;1.38;;;0.52;;
37559;SDS011;23398;50.928;7.084;2023-01-09T05:54:50;0.90;;;0.70;;
37559;SDS011;23398;50.928;7.084;2023-01-09T05:57:16;2.30;;;0.80;;
37559;SDS011;23398;50.928;7.084;2023-01-09T05:59:41;2.97;;;1.00;;
37559;SDS011;23398;50.928;7.084;2023-01-09T06:02:07;3.17;;;0.93;;
37559;SDS011;23398;50.928;7.084;2023-01-09T06:04:33;2.70;;;0.95;;
37559;SDS011;23398;50.928;7.084;2023-01-09T06:06:58;3.88;;;1.00;;
37559;SDS011;23398;50.928;7.084;2023-01-09T06:09:24;2.05;;;1.15;;
37559;SDS011;23398;50.928;7.084;2023-01-09T06:11:50;2.47;;;1.10;;
37559;SDS011;23398;50.928;7.084;2023-01-09T06:14:15;1.85;;;0.90;;
37559;SDS011;23398;50.928;7.084;2023-01-09T06:16:41;1.65;;;0.70;;
37559;SDS011;23398;50.928;7.084;2023-01-09T06:19:07;1.55;;;0.85;;
37559;SDS011;23398;50.928;7.084;2023-01-09T06:21:32;1.25;;;0.70;;
37559;SDS011;23398;50.928;7.084;2023-01-09T06:23:58;1.45;;;0.98;;
37559;SDS011;23398;50.928;7.084;2023-01-09T06:26:24;1.35;;;0.85;;
37559;SDS011;23398;50.928;7.084;2023-01-09T06:28:50;1.92;;;0.90;;
37559;SDS011;23398;50.928;7.084;2023-01-09T06:31:16;2.55;;;1.10;;
37559;SDS011;23398;50.928;7.084;2023-01-09T06:33:41;1.13;;;0.70;;
37559;SDS011;23398;50.928;7.084;2023-01-09T06:36:07;1.13;;;0.70;;
37559;SDS011;23398;50.928;7.084;2023-01-09T06:38:33;2.00;;;0.80;;
37559;SDS011;23398;50.928;7.084;2023-01-09T06:40:58;0.88;;;0.65;;
37559;SDS011;23398;50.928;7.084;2023-01-09T06:43:24;2.13;;;0.70;;
37559;SDS011;23398;50.928;7.084;2023-01-09T06:45:49;1.55;;;0.80;;
37559;SDS011;23398;50.928;7.084;2023-01-09T06:48:15;1.10;;;0.70;;
37559;SDS011;23398;50.928;7.084;2023-01-09T06:50:40;0.77;;;0.60;;
37559;SDS011;23398;50.928;7.084;2023-01-09T06:53:06;1.30;;;0.70;;
37559;SDS011;23398;50.928;7.084;2023-01-09T06:55:32;2.00;;;0.85;;
37559;SDS011;23398;50.928;7.084;2023-01-09T06:57:57;1.95;;;0.90;;
37559;SDS011;23398;50.928;7.084;2023-01-09T07:00:23;0.75;;;0.60;;
37559;SDS011;23398;50.928;7.084;2023-01-09T07:02:49;1.95;;;1.00;;
37559;SDS011;23398;50.928;7.084;2023-01-09T07:05:14;3.83;;;0.82;;
37559;SDS011;23398;50.928;7.084;2023-01-09T07:07:40;1.98;;;0.90;;
37559;SDS011;23398;50.928;7.084;2023-01-09T07:10:06;1.35;;;0.68;;
37559;SDS011;23398;50.928;7.084;2023-01-09T07:12:32;1.23;;;0.80;;
37559;SDS011;23398;50.928;7.084;2023-01-09T07:14:58;1.23;;;0.75;;
37559;SDS011;23398;50.928;7.084;2023-01-09T07:17:23;2.17;;;0.65;;
37559;SDS011;23398;50.928;7.084;2023-01-09T07:19:49;3.05;;;0.65;;
37559;SDS011;23398;50.928;7.084;2023-01-09T07:22:15;1.02;;;0.70;;
37559;SDS011;23398;50.928;7.084;2023-01-09T07:24:44;1.45;;;0.73;;
37559;SDS011;23398;50.928;7.084;2023-01-09T07:27:10;0.85;;;0.60;;
37559;SDS011;23398;50.928;7.084;2023-01-09T07:29:36;2.10;;;0.77;;
37559;SDS011;23398;50.928;7.084;2023-01-09T07:32:02;1.45;;;0.80;;
37559;SDS011;23398;50.928;7.084;2023-01-09T07:34:28;1.25;;;0.65;;
37559;SDS011;23398;50.928;7.084;2023-01-09T07:36:53;1.13;;;0.70;;
37559;SDS011;23398;50.928;7.084;2023-01-09T07:39:19;1.67;;;0.80;;
37559;SDS011;23398;50.928;7.084;2023-01-09T07:41:45;1.63;;;0.70;;
37559;SDS011;23398;50.928;7.084;2023-01-09T07:44:10;1.23;;;0.70;;
37559;SDS011;23398;50.928;7.084;2023-01-09T07:46:36;2.78;;;0.80;;
37559;SDS011;23398;50.928;7.084;2023-01-09T07:49:02;1.88;;;0.90;;
37559;SDS011;23398;50.928;7.084;2023-01-09T07:51:28;2.38;;;0.75;;
37559;SDS011;23398;50.928;7.084;2023-01-09T07:53:53;1.30;;;0.73;;
37559;SDS011;23398;50.928;7.084;2023-01-09T07:56:19;1.48;;;0.98;;
37559;SDS011;23398;50.928;7.084;2023-01-09T07:58:44;1.30;;;0.70;;
37559;SDS011;23398;50.928;7.084;2023-01-09T08:01:10;0.93;;;0.60;;
37559;SDS011;23398;50.928;7.084;2023-01-09T08:03:36;0.93;;;0.70;;
37559;SDS011;23398;50.928;7.084;2023-01-09T08:06:02;1.35;;;0.65;;
37559;SDS011;23398;50.928;7.084;2023-01-09T08:08:28;2.85;;;0.70;;
37559;SDS011;23398;50.928;7.084;2023-01-09T08:10:53;1.63;;;0.70;;
37559;SDS011;23398;50.928;7.084;2023-01-09T08:13:19;1.45;;;0.70;;
37559;SDS011;23398;50.928;7.084;2023-01-09T08:15:45;1.67;;;0.70;;
37559;SDS011;23398;50.928;7.084;2023-01-09T08:18:10;1.67;;;0.77;;
37559;SDS011;23398;50.928;7.084;2023-01-09T08:20:36;1.35;;;0.80;;
37559;SDS011;23398;50.928;7.084;2023-01-09T08:23:01;2.10;;;0.70;;
37559;SDS011;23398;50.928;7.084;2023-01-09T08:25:27;0.63;;;0.60;;
37559;SDS011;23398;50.928;7.084;2023-01-09T08:27:52;1.30;;;0.65;;
37559;SDS011;23398;50.928;7.084;2023-01-09T08:30:18;1.65;;;0.60;;
37559;SDS011;23398;50.928;7.084;2023-01-09T08:32:48;1.25;;;0.80;;
37559;SDS011;23398;50.928;7.084;2023-01-09T08:35:15;0.60;;;0.60;;
37559;SDS011;23398;50.928;7.084;2023-01-09T08:37:47;0.88;;;0.50;;
37559;SDS011;23398;50.928;7.084;2023-01-09T08:40:13;1.38;;;0.80;;
37559;SDS011;23398;50.928;7.084;2023-01-09T08:42:40;0.95;;;0.65;;
37559;SDS011;23398;50.928;7.084;2023-01-09T08:45:24;0.80;;;0.60;;
37559;SDS011;23398;50.928;7.084;2023-01-09T08:48:09;3.67;;;0.82;;
37559;SDS011;23398;50.928;7.084;2023-01-09T08:50:34;2.42;;;0.90;;
37559;SDS011;23398;50.928;7.084;2023-01-09T08:53:00;3.15;;;0.80;;
37559;SDS011;23398;50.928;7.084;2023-01-09T08:55:25;1.30;;;0.60;;
37559;SDS011;23398;50.928;7.084;2023-01-09T08:57:51;1.05;;;0.70;;
37559;SDS011;23398;50.928;7.084;2023-01-09T09:00:18;1.00;;;0.57;;
37559;SDS011;23398;50.928;7.084;2023-01-09T09:02:49;1.08;;;0.70;;
37559;SDS011;23398;50.928;7.084;2023-01-09T09:05:19;2.05;;;0.68;;
37559;SDS011;23398;50.928;7.084;2023-01-09T09:07:49;1.80;;;0.60;;
37559;SDS011;23398;50.928;7.084;2023-01-09T09:10:17;1.48;;;0.75;;
37559;SDS011;23398;50.928;7.084;2023-01-09T09:12:43;0.52;;;0.50;;
37559;SDS011;23398;50.928;7.084;2023-01-09T09:15:11;1.00;;;0.60;;
37559;SDS011;23398;50.928;7.084;2023-01-09T09:17:37;0.70;;;0.70;;
37559;SDS011;23398;50.928;7.084;2023-01-09T09:20:04;1.60;;;0.60;;
37559;SDS011;23398;50.928;7.084;2023-01-09T09:22:31;0.90;;;0.60;;
37559;SDS011;23398;50.928;7.084;2023-01-09T09:24:56;2.30;;;0.80;;
37559;SDS011;23398;50.928;7.084;2023-01-09T09:27:22;0.77;;;0.60;;
37559;SDS011;23398;50.928;7.084;2023-01-09T09:29:48;0.93;;;0.60;;
37559;SDS011;23398;50.928;7.084;2023-01-09T09:32:14;1.30;;;0.70;;
37559;SDS011;23398;50.928;7.084;2023-01-09T09:34:39;0.82;;;0.60;;
37559;SDS011;23398;50.928;7.084;2023-01-09T09:37:05;0.85;;;0.60;;
37559;SDS011;23398;50.928;7.084;2023-01-09T09:39:31;1.20;;;0.70;;
37559;SDS011;23398;50.928;7.084;2023-01-09T09:55:42;1.95;;;0.90;;
37559;SDS011;23398;50.928;7.084;2023-01-09T10:00:46;1.10;;;0.60;;
37559;SDS011;23398;50.928;7.084;2023-01-09T10:03:21;2.05;;;0.85;;
37559;SDS011;23398;50.928;7.084;2023-01-09T10:06:01;1.67;;;0.90;;
37559;SDS011;23398;50.928;7.084;2023-01-09T10:11:29;1.88;;;0.80;;
37559;SDS011;23398;50.928;7.084;2023-01-09T10:14:03;1.65;;;0.60;;
37559;SDS011;23398;50.928;7.084;2023-01-09T10:19:09;2.10;;;0.88;;
37559;SDS011;23398;50.928;7.084;2023-01-09T10:22:05;2.22;;;0.80;;
37559;SDS011;23398;50.928;7.084;2023-01-09T10:24:57;0.88;;;0.70;;
37559;SDS011;23398;50.928;7.084;2023-01-09T10:32:49;1.25;;;0.80;;
37559;SDS011;23398;50.928;7.084;2023-01-09T10:38:15;1.33;;;0.70;;
37559;SDS011;23398;50.928;7.084;2023-01-09T10:40:53;0.68;;;0.60;;
37559;SDS011;23398;50.928;7.084;2023-01-09T10:45:57;0.88;;;0.70;;
37559;SDS011;23398;50.928;7.084;2023-01-09T10:48:31;0.85;;;0.50;;
37559;SDS011;23398;50.928;7.084;2023-01-09T10:50:59;0.65;;;0.55;;
37559;SDS011;23398;50.928;7.084;2023-01-09T10:53:31;0.50;;;0.50;;
37559;SDS011;23398;50.928;7.084;2023-01-09T10:56:06;0.75;;;0.52;;
37559;SDS011;23398;50.928;7.084;2023-01-09T10:58:37;0.80;;;0.57;;
37559;SDS011;23398;50.928;7.084;2023-01-09T11:01:02;1.08;;;0.70;;
37559;SDS011;23398;50.928;7.084;2023-01-09T11:03:29;0.90;;;0.70;;
37559;SDS011;23398;50.928;7.084;2023-01-09T11:05:55;1.58;;;0.70;;
37559;SDS011;23398;50.928;7.084;2023-01-09T11:08:27;0.95;;;0.60;;
37559;SDS011;23398;50.928;7.084;2023-01-09T11:11:06;0.82;;;0.63;;
37559;SDS011;23398;50.928;7.084;2023-01-09T11:13:33;1.55;;;0.60;;
37559;SDS011;23398;50.928;7.084;2023-01-09T11:18:55;1.40;;;0.75;;
37559;SDS011;23398;50.928;7.084;2023-01-09T11:21:34;1.60;;;0.90;;
37559;SDS011;23398;50.928;7.084;2023-01-09T11:24:36;2.78;;;0.80;;
37559;SDS011;23398;50.928;7.084;2023-01-09T11:29:47;1.20;;;0.80;;
37559;SDS011;23398;50.928;7.084;2023-01-09T11:32:37;1.08;;;0.57;;
37559;SDS011;23398;50.928;7.084;2023-01-09T11:35:06;1.10;;;0.60;;
37559;SDS011;23398;50.928;7.084;2023-01-09T11:37:38;0.80;;;0.60;;
37559;SDS011;23398;50.928;7.084;2023-01-09T11:40:04;0.90;;;0.70;;
37559;SDS011;23398;50.928;7.084;2023-01-09T11:42:39;0.77;;;0.55;;
37559;SDS011;23398;50.928;7.084;2023-01-09T11:45:18;0.90;;;0.70;;
37559;SDS011;23398;50.928;7.084;2023-01-09T11:47:46;0.82;;;0.57;;
37559;SDS011;23398;50.928;7.084;2023-01-09T11:52:44;0.68;;;0.60;;
37559;SDS011;23398;50.928;7.084;2023-01-09T11:55:11;1.95;;;0.90;;
37559;SDS011;23398;50.928;7.084;2023-01-09T11:57:42;2.45;;;1.10;;
37559;SDS011;23398;50.928;7.084;2023-01-09T12:03:09;0.73;;;0.70;;
37559;SDS011;23398;50.928;7.084;2023-01-09T12:11:25;0.60;;;0.60;;
37559;SDS011;23398;50.928;7.084;2023-01-09T12:13:54;0.60;;;0.60;;
37559;SDS011;23398;50.928;7.084;2023-01-09T12:24:51;0.90;;;0.60;;
37559;SDS011;23398;50.928;7.084;2023-01-09T12:35:52;0.50;;;0.50;;
37559;SDS011;23398;50.928;7.084;2023-01-09T12:38:32;0.57;;;0.45;;
37559;SDS011;23398;50.928;7.084;2023-01-09T12:43:55;1.73;;;0.60;;
37559;SDS011;23398;50.928;7.084;2023-01-09T12:46:28;0.85;;;0.60;;
37559;SDS011;23398;50.928;7.084;2023-01-09T12:57:42;1.67;;;0.50;;
37559;SDS011;23398;50.928;7.084;2023-01-09T13:00:17;0.80;;;0.50;;
37559;SDS011;23398;50.928;7.084;2023-01-09T13:02:49;1.67;;;0.70;;
37559;SDS011;23398;50.928;7.084;2023-01-09T13:05:25;2.47;;;1.15;;
37559;SDS011;23398;50.928;7.084;2023-01-09T13:08:06;1.88;;;0.60;;
37559;SDS011;23398;50.928;7.084;2023-01-09T13:10:41;0.98;;;0.70;;
37559;SDS011;23398;50.928;7.084;2023-01-09T13:13:25;1.10;;;0.50;;
37559;SDS011;23398;50.928;7.084;2023-01-09T13:15:57;1.15;;;0.60;;
37559;SDS011;23398;50.928;7.084;2023-01-09T13:18:31;0.90;;;0.70;;
37559;SDS011;23398;50.928;7.084;2023-01-09T13:21:10;1.23;;;0.60;;
37559;SDS011;23398;50.928;7.084;2023-01-09T13:26:32;1.80;;;1.00;;
37559;SDS011;23398;50.928;7.084;2023-01-09T13:29:12;2.65;;;0.95;;
37559;SDS011;23398;50.928;7.084;2023-01-09T13:31:55;1.23;;;0.68;;
37559;SDS011;23398;50.928;7.084;2023-01-09T13:34:45;2.58;;;0.90;;
37559;SDS011;23398;50.928;7.084;2023-01-09T13:43:06;1.58;;;0.70;;
37559;SDS011;23398;50.928;7.084;2023-01-09T13:45:37;1.27;;;0.70;;
37559;SDS011;23398;50.928;7.084;2023-01-09T13:50:36;1.58;;;0.80;;
37559;SDS011;23398;50.928;7.084;2023-01-09T13:53:40;1.73;;;0.80;;
37559;SDS011;23398;50.928;7.084;2023-01-09T13:58:23;1.05;;;0.73;;
37559;SDS011;23398;50.928;7.084;2023-01-09T14:00:50;3.20;;;0.77;;
37559;SDS011;23398;50.928;7.084;2023-01-09T14:08:22;3.13;;;1.00;;
37559;SDS011;23398;50.928;7.084;2023-01-09T14:10:56;1.08;;;0.75;;
37559;SDS011;23398;50.928;7.084;2023-01-09T14:16:19;1.50;;;0.90;;
37559;SDS011;23398;50.928;7.084;2023-01-09T14:18:56;1.15;;;0.82;;
37559;SDS011;23398;50.928;7.084;2023-01-09T14:21:46;1.48;;;0.93;;
37559;SDS011;23398;50.928;7.084;2023-01-09T14:24:22;1.35;;;0.90;;
37559;SDS011;23398;50.928;7.084;2023-01-09T14:30:38;1.70;;;1.00;;
37559;SDS011;23398;50.928;7.084;2023-01-09T14:35:50;1.05;;;0.70;;
37559;SDS011;23398;50.928;7.084;2023-01-09T14:40:55;2.13;;;1.10;;
37559;SDS011;23398;50.928;7.084;2023-01-09T14:46:15;1.25;;;0.82;;
37559;SDS011;23398;50.928;7.084;2023-01-09T14:48:58;1.50;;;1.00;;
37559;SDS011;23398;50.928;7.084;2023-01-09T14:51:28;1.52;;;0.80;;
37559;SDS011;23398;50.928;7.084;2023-01-09T14:53:56;2.67;;;1.02;;
37559;SDS011;23398;50.928;7.084;2023-01-09T14:56:25;1.83;;;1.00;;
37559;SDS011;23398;50.928;7.084;2023-01-09T14:59:03;1.05;;;0.80;;
37559;SDS011;23398;50.928;7.084;2023-01-09T15:01:36;1.48;;;0.93;;
37559;SDS011;23398;50.928;7.084;2023-01-09T15:04:05;1.70;;;0.98;;
37559;SDS011;23398;50.928;7.084;2023-01-09T15:06:41;2.10;;;1.10;;
37559;SDS011;23398;50.928;7.084;2023-01-09T15:09:22;4.50;;;1.30;;
37559;SDS011;23398;50.928;7.084;2023-01-09T15:11:52;2.60;;;1.20;;
37559;SDS011;23398;50.928;7.084;2023-01-09T15:14:24;2.35;;;1.27;;
37559;SDS011;23398;50.928;7.084;2023-01-09T15:17:00;1.63;;;1.00;;
37559;SDS011;23398;50.928;7.084;2023-01-09T15:19:28;1.35;;;1.00;;
37559;SDS011;23398;50.928;7.084;2023-01-09T15:22:00;2.72;;;1.00;;
37559;SDS011;23398;50.928;7.084;2023-01-09T15:24:28;3.33;;;1.17;;
37559;SDS011;23398;50.928;7.084;2023-01-09T15:26:58;1.88;;;1.00;;
37559;SDS011;23398;50.928;7.084;2023-01-09T15:29:25;1.52;;;1.00;;
37559;SDS011;23398;50.928;7.084;2023-01-09T15:32:02;1.45;;;0.80;;
37559;SDS011;23398;50.928;7.084;2023-01-09T15:34:42;2.38;;;1.05;;
37559;SDS011;23398;50.928;7.084;2023-01-09T15:37:42;1.48;;;0.88;;
37559;SDS011;23398;50.928;7.084;2023-01-09T15:40:02;2.15;;;1.10;;
37559;SDS011;23398;50.928;7.084;2023-01-09T15:42:30;2.88;;;1.13;;
37559;SDS011;23398;50.928;7.084;2023-01-09T15:45:24;2.65;;;1.10;;
37559;SDS011;23398;50.928;7.084;2023-01-09T15:47:50;3.42;;;1.30;;
37559;SDS011;23398;50.928;7.084;2023-01-09T15:50:17;2.05;;;1.10;;
37559;SDS011;23398;50.928;7.084;2023-01-09T15:52:49;1.45;;;0.90;;
37559;SDS011;23398;50.928;7.084;2023-01-09T15:55:27;1.42;;;0.93;;
37559;SDS011;23398;50.928;7.084;2023-01-09T15:58:02;2.10;;;1.10;;
37559;SDS011;23398;50.928;7.084;2023-01-09T16:00:52;3.60;;;1.10;;
37559;SDS011;23398;50.928;7.084;2023-01-09T16:03:20;1.88;;;1.30;;
37559;SDS011;23398;50.928;7.084;2023-01-09T16:05:51;3.67;;;1.67;;
37559;SDS011;23398;50.928;7.084;2023-01-09T16:08:26;2.80;;;1.30;;
37559;SDS011;23398;50.928;7.084;2023-01-09T16:10:58;2.65;;;1.25;;
37559;SDS011;23398;50.928;7.084;2023-01-09T16:13:28;2.55;;;1.38;;
37559;SDS011;23398;50.928;7.084;2023-01-09T16:15:55;4.47;;;1.25;;
37559;SDS011;23398;50.928;7.084;2023-01-09T16:18:27;2.75;;;1.50;;
37559;SDS011;23398;50.928;7.084;2023-01-09T16:21:02;2.67;;;1.30;;
37559;SDS011;23398;50.928;7.084;2023-01-09T16:23:55;2.25;;;1.15;;
37559;SDS011;23398;50.928;7.084;2023-01-09T16:26:23;3.80;;;1.38;;
37559;SDS011;23398;50.928;7.084;2023-01-09T16:28:50;2.22;;;1.17;;
37559;SDS011;23398;50.928;7.084;2023-01-09T16:31:21;2.95;;;1.13;;
37559;SDS011;23398;50.928;7.084;2023-01-09T16:34:02;3.17;;;1.20;;
37559;SDS011;23398;50.928;7.084;2023-01-09T16:36:30;4.40;;;1.20;;
37559;SDS011;23398;50.928;7.084;2023-01-09T16:38:59;1.23;;;0.90;;
37559;SDS011;23398;50.928;7.084;2023-01-09T16:41:27;2.33;;;1.10;;
37559;SDS011;23398;50.928;7.084;2023-01-09T16:44:11;2.63;;;1.00;;
37559;SDS011;23398;50.928;7.084;2023-01-09T16:46:38;4.32;;;1.40;;
37559;SDS011;23398;50.928;7.084;2023-01-09T16:49:19;2.83;;;1.13;;
37559;SDS011;23398;50.928;7.084;2023-01-09T16:51:51;2.83;;;1.80;;
37559;SDS011;23398;50.928;7.084;2023-01-09T16:54:18;3.85;;;1.70;;
37559;SDS011;23398;50.928;7.084;2023-01-09T16:56:44;2.38;;;1.10;;
37559;SDS011;23398;50.928;7.084;2023-01-09T16:59:13;3.20;;;1.17;;
37559;SDS011;23398;50.928;7.084;2023-01-09T17:01:44;4.03;;;1.10;;
37559;SDS011;23398;50.928;7.084;2023-01-09T17:04:11;2.08;;;1.00;;
37559;SDS011;23398;50.928;7.084;2023-01-09T17:06:39;3.15;;;1.15;;
37559;SDS011;23398;50.928;7.084;2023-01-09T17:09:05;2.50;;;1.20;;
37559;SDS011;23398;50.928;7.084;2023-01-09T17:11:39;3.25;;;1.40;;
37559;SDS011;23398;50.928;7.084;2023-01-09T17:14:05;2.78;;;1.13;;
37559;SDS011;23398;50.928;7.084;2023-01-09T17:16:32;3.40;;;1.30;;
37559;SDS011;23398;50.928;7.084;2023-01-09T17:19:02;2.95;;;1.30;;
37559;SDS011;23398;50.928;7.084;2023-01-09T17:21:28;2.92;;;1.20;;